sensor_id;sensor_type;location;lat;lon;timestamp;P1;durP1;ratioP1;P2;durP2;ratioP2
12908;SDS011;6522;49.622;6.126;2023-05-07T00:02:35;7.20;;;4.50;;
12908;SDS011;6522;49.622;6.126;2023-05-07T00:05:21;5.93;;;4.95;;
12908;SDS011;6522;49.622;6.126;2023-05-07T00:08:08;5.47;;;4.93;;
12908;SDS011;6522;49.622;6.126;2023-05-07T00:10:54;5.60;;;5.10;;
12908;SDS011;6522;49.622;6.126;2023-05-07T00:13:41;5.28;;;4.87;;
12908;SDS011;6522;49.622;6.126;2023-05-07T00:16:28;6.12;;;5.53;;
12908;SDS011;6522;49.622;6.126;2023-05-07T00:19:15;6.95;;;6.25;;
12908;SDS011;6522;49.622;6.126;2023-05-07T00:22:02;6.37;;;5.62;;
12908;SDS011;6522;49.622;6.126;2023-05-07T00:24:48;6.47;;;5.97;;
12908;SDS011;6522;49.622;6.126;2023-05-07T00:27:35;7.80;;;5.80;;
12908;SDS011;6522;49.622;6.126;2023-05-07T00:30:22;9.50;;;6.60;;
12908;SDS011;6522;49.622;6.126;2023-05-07T00:33:09;6.15;;;5.55;;
12908;SDS011;6522;49.622;6.126;2023-05-07T00:35:55;6.07;;;5.55;;
12908;SDS011;6522;49.622;6.126;2023-05-07T00:38:42;6.07;;;5.47;;
12908;SDS011;6522;49.622;6.126;2023-05-07T00:41:29;7.75;;;6.00;;
12908;SDS011;6522;49.622;6.126;2023-05-07T00:44:15;7.07;;;6.37;;
12908;SDS011;6522;49.622;6.126;2023-05-07T00:47:03;8.63;;;6.50;;
12908;SDS011;6522;49.622;6.126;2023-05-07T00:49:49;6.78;;;5.37;;
12908;SDS011;6522;49.622;6.126;2023-05-07T00:52:36;7.53;;;6.25;;
12908;SDS011;6522;49.622;6.126;2023-05-07T00:55:23;6.15;;;5.55;;
12908;SDS011;6522;49.622;6.126;2023-05-07T00:58:09;6.72;;;6.10;;
12908;SDS011;6522;49.622;6.126;2023-05-07T01:00:56;7.05;;;6.35;;
12908;SDS011;6522;49.622;6.126;2023-05-07T01:03:43;8.23;;;7.53;;
12908;SDS011;6522;49.622;6.126;2023-05-07T01:06:30;8.05;;;7.25;;
12908;SDS011;6522;49.622;6.126;2023-05-07T01:09:16;6.78;;;6.15;;
12908;SDS011;6522;49.622;6.126;2023-05-07T01:12:03;8.13;;;7.32;;
12908;SDS011;6522;49.622;6.126;2023-05-07T01:14:50;8.77;;;7.97;;
12908;SDS011;6522;49.622;6.126;2023-05-07T01:17:41;8.45;;;7.72;;
12908;SDS011;6522;49.622;6.126;2023-05-07T01:20:27;12.02;;;7.72;;
12908;SDS011;6522;49.622;6.126;2023-05-07T01:23:14;8.68;;;7.78;;
12908;SDS011;6522;49.622;6.126;2023-05-07T01:26:01;8.75;;;7.85;;
12908;SDS011;6522;49.622;6.126;2023-05-07T01:28:47;12.85;;;7.30;;
12908;SDS011;6522;49.622;6.126;2023-05-07T01:31:34;8.25;;;7.45;;
12908;SDS011;6522;49.622;6.126;2023-05-07T01:34:21;8.35;;;7.65;;
12908;SDS011;6522;49.622;6.126;2023-05-07T01:37:08;9.65;;;8.75;;
12908;SDS011;6522;49.622;6.126;2023-05-07T01:39:55;9.07;;;8.20;;
12908;SDS011;6522;49.622;6.126;2023-05-07T01:42:42;9.50;;;8.70;;
12908;SDS011;6522;49.622;6.126;2023-05-07T01:45:29;9.10;;;8.20;;
12908;SDS011;6522;49.622;6.126;2023-05-07T01:48:15;9.80;;;8.30;;
12908;SDS011;6522;49.622;6.126;2023-05-07T01:51:02;8.23;;;7.43;;
12908;SDS011;6522;49.622;6.126;2023-05-07T01:53:49;10.68;;;8.43;;
12908;SDS011;6522;49.622;6.126;2023-05-07T01:56:35;10.38;;;8.38;;
12908;SDS011;6522;49.622;6.126;2023-05-07T01:59:22;8.70;;;7.90;;
12908;SDS011;6522;49.622;6.126;2023-05-07T02:02:09;7.90;;;7.10;;
12908;SDS011;6522;49.622;6.126;2023-05-07T02:04:56;9.85;;;8.90;;
12908;SDS011;6522;49.622;6.126;2023-05-07T02:07:42;8.35;;;7.55;;
12908;SDS011;6522;49.622;6.126;2023-05-07T02:10:29;11.68;;;9.90;;
12908;SDS011;6522;49.622;6.126;2023-05-07T02:13:16;10.85;;;9.73;;
12908;SDS011;6522;49.622;6.126;2023-05-07T02:16:02;9.50;;;8.65;;
12908;SDS011;6522;49.622;6.126;2023-05-07T02:18:49;10.52;;;9.18;;
12908;SDS011;6522;49.622;6.126;2023-05-07T02:21:36;9.55;;;8.65;;
12908;SDS011;6522;49.622;6.126;2023-05-07T02:24:23;9.90;;;9.10;;
12908;SDS011;6522;49.622;6.126;2023-05-07T02:27:09;8.38;;;7.68;;
12908;SDS011;6522;49.622;6.126;2023-05-07T02:29:56;10.02;;;8.68;;
12908;SDS011;6522;49.622;6.126;2023-05-07T02:32:43;10.88;;;9.57;;
12908;SDS011;6522;49.622;6.126;2023-05-07T02:35:29;9.30;;;8.40;;
12908;SDS011;6522;49.622;6.126;2023-05-07T02:38:16;9.68;;;8.77;;
12908;SDS011;6522;49.622;6.126;2023-05-07T02:41:03;9.75;;;8.85;;
12908;SDS011;6522;49.622;6.126;2023-05-07T02:43:50;9.50;;;8.65;;
12908;SDS011;6522;49.622;6.126;2023-05-07T02:46:37;9.30;;;8.30;;
12908;SDS011;6522;49.622;6.126;2023-05-07T02:49:24;9.63;;;8.63;;
12908;SDS011;6522;49.622;6.126;2023-05-07T02:52:11;17.98;;;8.30;;
12908;SDS011;6522;49.622;6.126;2023-05-07T02:54:58;11.30;;;10.15;;
12908;SDS011;6522;49.622;6.126;2023-05-07T02:57:45;10.68;;;9.68;;
12908;SDS011;6522;49.622;6.126;2023-05-07T03:00:31;9.63;;;8.75;;
12908;SDS011;6522;49.622;6.126;2023-05-07T03:03:18;14.77;;;9.70;;
12908;SDS011;6522;49.622;6.126;2023-05-07T03:06:05;10.52;;;8.40;;
12908;SDS011;6522;49.622;6.126;2023-05-07T03:08:52;10.10;;;9.00;;
12908;SDS011;6522;49.622;6.126;2023-05-07T03:11:39;10.65;;;8.85;;
12908;SDS011;6522;49.622;6.126;2023-05-07T03:14:25;9.00;;;8.30;;
12908;SDS011;6522;49.622;6.126;2023-05-07T03:17:12;10.18;;;9.20;;
12908;SDS011;6522;49.622;6.126;2023-05-07T03:19:58;10.90;;;9.38;;
12908;SDS011;6522;49.622;6.126;2023-05-07T03:22:45;11.20;;;9.10;;
12908;SDS011;6522;49.622;6.126;2023-05-07T03:25:32;9.77;;;8.77;;
12908;SDS011;6522;49.622;6.126;2023-05-07T03:28:19;10.43;;;9.23;;
12908;SDS011;6522;49.622;6.126;2023-05-07T03:31:06;11.30;;;10.20;;
12908;SDS011;6522;49.622;6.126;2023-05-07T03:33:54;23.05;;;11.45;;
12908;SDS011;6522;49.622;6.126;2023-05-07T03:36:40;10.55;;;9.45;;
12908;SDS011;6522;49.622;6.126;2023-05-07T03:39:27;13.85;;;10.40;;
12908;SDS011;6522;49.622;6.126;2023-05-07T03:42:14;11.55;;;10.35;;
12908;SDS011;6522;49.622;6.126;2023-05-07T03:45:00;10.23;;;9.25;;
12908;SDS011;6522;49.622;6.126;2023-05-07T03:47:47;13.70;;;10.20;;
12908;SDS011;6522;49.622;6.126;2023-05-07T03:50:33;11.75;;;10.25;;
12908;SDS011;6522;49.622;6.126;2023-05-07T03:53:20;11.48;;;9.50;;
12908;SDS011;6522;49.622;6.126;2023-05-07T03:56:08;12.75;;;9.95;;
12908;SDS011;6522;49.622;6.126;2023-05-07T03:58:54;11.12;;;9.98;;
12908;SDS011;6522;49.622;6.126;2023-05-07T04:01:42;10.50;;;9.50;;
12908;SDS011;6522;49.622;6.126;2023-05-07T04:04:28;9.95;;;9.05;;
12908;SDS011;6522;49.622;6.126;2023-05-07T04:07:15;11.30;;;9.07;;
12908;SDS011;6522;49.622;6.126;2023-05-07T04:10:02;11.65;;;10.45;;
12908;SDS011;6522;49.622;6.126;2023-05-07T04:12:49;14.20;;;11.32;;
12908;SDS011;6522;49.622;6.126;2023-05-07T04:15:35;12.80;;;10.60;;
12908;SDS011;6522;49.622;6.126;2023-05-07T04:18:22;11.98;;;10.77;;
12908;SDS011;6522;49.622;6.126;2023-05-07T04:21:16;10.45;;;9.40;;
12908;SDS011;6522;49.622;6.126;2023-05-07T04:24:05;10.68;;;9.27;;
12908;SDS011;6522;49.622;6.126;2023-05-07T04:26:52;10.05;;;8.70;;
12908;SDS011;6522;49.622;6.126;2023-05-07T04:29:39;11.12;;;10.02;;
12908;SDS011;6522;49.622;6.126;2023-05-07T04:32:25;10.30;;;9.13;;
12908;SDS011;6522;49.622;6.126;2023-05-07T04:35:12;9.65;;;8.70;;
12908;SDS011;6522;49.622;6.126;2023-05-07T04:37:59;9.30;;;8.50;;
12908;SDS011;6522;49.622;6.126;2023-05-07T04:40:46;12.20;;;11.00;;
12908;SDS011;6522;49.622;6.126;2023-05-07T04:43:32;11.77;;;10.60;;
12908;SDS011;6522;49.622;6.126;2023-05-07T04:46:20;28.77;;;11.32;;
12908;SDS011;6522;49.622;6.126;2023-05-07T04:49:06;18.30;;;12.40;;
12908;SDS011;6522;49.622;6.126;2023-05-07T04:51:53;13.50;;;10.10;;
12908;SDS011;6522;49.622;6.126;2023-05-07T04:54:40;11.73;;;10.52;;
12908;SDS011;6522;49.622;6.126;2023-05-07T04:57:26;10.75;;;9.77;;
12908;SDS011;6522;49.622;6.126;2023-05-07T05:00:13;12.10;;;9.55;;
12908;SDS011;6522;49.622;6.126;2023-05-07T05:03:03;11.55;;;9.93;;
12908;SDS011;6522;49.622;6.126;2023-05-07T05:05:50;10.88;;;9.25;;
12908;SDS011;6522;49.622;6.126;2023-05-07T05:08:36;11.60;;;10.60;;
12908;SDS011;6522;49.622;6.126;2023-05-07T05:11:23;10.70;;;9.50;;
12908;SDS011;6522;49.622;6.126;2023-05-07T05:14:10;10.73;;;9.65;;
12908;SDS011;6522;49.622;6.126;2023-05-07T05:16:57;10.80;;;9.70;;
12908;SDS011;6522;49.622;6.126;2023-05-07T05:19:44;11.82;;;10.63;;
12908;SDS011;6522;49.622;6.126;2023-05-07T05:22:31;11.80;;;10.60;;
12908;SDS011;6522;49.622;6.126;2023-05-07T05:25:17;11.63;;;10.52;;
12908;SDS011;6522;49.622;6.126;2023-05-07T05:28:04;11.02;;;9.82;;
12908;SDS011;6522;49.622;6.126;2023-05-07T05:30:51;11.07;;;9.98;;
12908;SDS011;6522;49.622;6.126;2023-05-07T05:33:37;12.30;;;9.23;;
12908;SDS011;6522;49.622;6.126;2023-05-07T05:36:24;11.32;;;10.23;;
12908;SDS011;6522;49.622;6.126;2023-05-07T05:39:11;13.35;;;9.07;;
12908;SDS011;6522;49.622;6.126;2023-05-07T05:41:58;9.70;;;8.80;;
12908;SDS011;6522;49.622;6.126;2023-05-07T05:44:45;11.00;;;9.90;;
12908;SDS011;6522;49.622;6.126;2023-05-07T05:47:31;10.65;;;9.55;;
12908;SDS011;6522;49.622;6.126;2023-05-07T05:50:18;9.38;;;8.48;;
12908;SDS011;6522;49.622;6.126;2023-05-07T05:53:05;9.55;;;8.75;;
12908;SDS011;6522;49.622;6.126;2023-05-07T05:55:52;10.35;;;9.35;;
12908;SDS011;6522;49.622;6.126;2023-05-07T05:58:39;10.80;;;9.80;;
12908;SDS011;6522;49.622;6.126;2023-05-07T06:01:26;10.80;;;9.85;;
12908;SDS011;6522;49.622;6.126;2023-05-07T06:04:12;8.18;;;7.37;;
12908;SDS011;6522;49.622;6.126;2023-05-07T06:06:59;9.25;;;8.43;;
12908;SDS011;6522;49.622;6.126;2023-05-07T06:09:46;7.95;;;7.15;;
12908;SDS011;6522;49.622;6.126;2023-05-07T06:12:32;6.60;;;6.00;;
12908;SDS011;6522;49.622;6.126;2023-05-07T06:15:19;6.93;;;6.32;;
12908;SDS011;6522;49.622;6.126;2023-05-07T06:18:06;6.62;;;6.12;;
12908;SDS011;6522;49.622;6.126;2023-05-07T06:20:53;6.97;;;6.22;;
12908;SDS011;6522;49.622;6.126;2023-05-07T06:23:40;6.37;;;5.78;;
12908;SDS011;6522;49.622;6.126;2023-05-07T06:26:26;7.12;;;6.40;;
12908;SDS011;6522;49.622;6.126;2023-05-07T06:29:13;7.95;;;7.15;;
12908;SDS011;6522;49.622;6.126;2023-05-07T06:32:06;6.57;;;5.97;;
12908;SDS011;6522;49.622;6.126;2023-05-07T06:34:49;6.87;;;6.25;;
12908;SDS011;6522;49.622;6.126;2023-05-07T06:37:36;7.03;;;6.32;;
12908;SDS011;6522;49.622;6.126;2023-05-07T06:40:23;7.68;;;7.00;;
12908;SDS011;6522;49.622;6.126;2023-05-07T06:43:09;6.87;;;6.18;;
12908;SDS011;6522;49.622;6.126;2023-05-07T06:45:56;6.87;;;6.20;;
12908;SDS011;6522;49.622;6.126;2023-05-07T06:48:42;6.18;;;5.57;;
12908;SDS011;6522;49.622;6.126;2023-05-07T06:51:30;6.30;;;5.70;;
12908;SDS011;6522;49.622;6.126;2023-05-07T06:54:16;7.20;;;6.60;;
12908;SDS011;6522;49.622;6.126;2023-05-07T06:57:03;5.70;;;4.60;;
12908;SDS011;6522;49.622;6.126;2023-05-07T06:59:50;7.30;;;6.75;;
12908;SDS011;6522;49.622;6.126;2023-05-07T07:02:37;7.20;;;6.50;;
12908;SDS011;6522;49.622;6.126;2023-05-07T07:05:24;5.85;;;5.25;;
12908;SDS011;6522;49.622;6.126;2023-05-07T07:08:10;6.68;;;6.07;;
12908;SDS011;6522;49.622;6.126;2023-05-07T07:10:57;6.68;;;6.18;;
12908;SDS011;6522;49.622;6.126;2023-05-07T07:13:43;6.37;;;5.87;;
12908;SDS011;6522;49.622;6.126;2023-05-07T07:16:30;5.20;;;4.70;;
12908;SDS011;6522;49.622;6.126;2023-05-07T07:19:17;6.55;;;6.05;;
12908;SDS011;6522;49.622;6.126;2023-05-07T07:22:03;10.10;;;7.28;;
12908;SDS011;6522;49.622;6.126;2023-05-07T07:24:50;7.62;;;7.00;;
12908;SDS011;6522;49.622;6.126;2023-05-07T07:27:37;6.00;;;5.50;;
12908;SDS011;6522;49.622;6.126;2023-05-07T07:30:24;8.50;;;7.80;;
12908;SDS011;6522;49.622;6.126;2023-05-07T07:33:11;7.57;;;6.97;;
12908;SDS011;6522;49.622;6.126;2023-05-07T07:35:57;8.40;;;7.80;;
12908;SDS011;6522;49.622;6.126;2023-05-07T07:38:44;7.80;;;7.20;;
12908;SDS011;6522;49.622;6.126;2023-05-07T07:41:31;8.57;;;7.97;;
12908;SDS011;6522;49.622;6.126;2023-05-07T07:44:18;9.67;;;9.07;;
12908;SDS011;6522;49.622;6.126;2023-05-07T07:47:04;8.40;;;7.70;;
12908;SDS011;6522;49.622;6.126;2023-05-07T07:49:51;9.50;;;8.80;;
12908;SDS011;6522;49.622;6.126;2023-05-07T07:52:38;10.90;;;10.30;;
12908;SDS011;6522;49.622;6.126;2023-05-07T07:55:24;10.38;;;9.57;;
12908;SDS011;6522;49.622;6.126;2023-05-07T07:58:11;9.65;;;9.05;;
12908;SDS011;6522;49.622;6.126;2023-05-07T08:00:58;10.32;;;9.63;;
12908;SDS011;6522;49.622;6.126;2023-05-07T08:03:45;12.77;;;12.07;;
12908;SDS011;6522;49.622;6.126;2023-05-07T08:06:31;10.40;;;9.80;;
12908;SDS011;6522;49.622;6.126;2023-05-07T08:09:18;10.00;;;9.40;;
12908;SDS011;6522;49.622;6.126;2023-05-07T08:12:05;12.40;;;11.60;;
12908;SDS011;6522;49.622;6.126;2023-05-07T08:14:51;10.40;;;9.70;;
12908;SDS011;6522;49.622;6.126;2023-05-07T08:17:38;11.10;;;10.40;;
12908;SDS011;6522;49.622;6.126;2023-05-07T08:20:25;12.07;;;11.30;;
12908;SDS011;6522;49.622;6.126;2023-05-07T08:23:11;10.52;;;9.93;;
12908;SDS011;6522;49.622;6.126;2023-05-07T08:25:58;11.57;;;10.88;;
12908;SDS011;6522;49.622;6.126;2023-05-07T08:28:44;13.20;;;12.50;;
12908;SDS011;6522;49.622;6.126;2023-05-07T08:31:31;12.20;;;11.40;;
12908;SDS011;6522;49.622;6.126;2023-05-07T08:34:18;12.40;;;11.70;;
12908;SDS011;6522;49.622;6.126;2023-05-07T08:37:04;15.10;;;14.30;;
12908;SDS011;6522;49.622;6.126;2023-05-07T08:39:51;12.90;;;12.10;;
12908;SDS011;6522;49.622;6.126;2023-05-07T08:42:38;15.40;;;14.40;;
12908;SDS011;6522;49.622;6.126;2023-05-07T08:45:25;13.67;;;12.80;;
12908;SDS011;6522;49.622;6.126;2023-05-07T08:48:15;13.75;;;12.95;;
12908;SDS011;6522;49.622;6.126;2023-05-07T08:50:58;14.80;;;13.90;;
12908;SDS011;6522;49.622;6.126;2023-05-07T08:53:45;15.10;;;14.30;;
12908;SDS011;6522;49.622;6.126;2023-05-07T08:56:32;16.03;;;15.23;;
12908;SDS011;6522;49.622;6.126;2023-05-07T08:59:19;13.73;;;12.93;;
12908;SDS011;6522;49.622;6.126;2023-05-07T09:02:06;16.37;;;15.50;;
12908;SDS011;6522;49.622;6.126;2023-05-07T09:04:52;16.90;;;16.00;;
12908;SDS011;6522;49.622;6.126;2023-05-07T09:07:39;16.97;;;16.07;;
12908;SDS011;6522;49.622;6.126;2023-05-07T09:10:26;17.23;;;16.13;;
12908;SDS011;6522;49.622;6.126;2023-05-07T09:13:13;16.97;;;16.03;;
12908;SDS011;6522;49.622;6.126;2023-05-07T09:16:09;16.63;;;15.83;;
12908;SDS011;6522;49.622;6.126;2023-05-07T09:18:46;17.83;;;16.93;;
12908;SDS011;6522;49.622;6.126;2023-05-07T09:21:33;16.73;;;15.73;;
12908;SDS011;6522;49.622;6.126;2023-05-07T09:24:21;17.63;;;16.70;;
12908;SDS011;6522;49.622;6.126;2023-05-07T09:27:07;17.87;;;16.87;;
12908;SDS011;6522;49.622;6.126;2023-05-07T09:29:54;17.90;;;17.00;;
12908;SDS011;6522;49.622;6.126;2023-05-07T09:32:41;17.30;;;16.43;;
12908;SDS011;6522;49.622;6.126;2023-05-07T09:35:28;15.40;;;14.50;;
12908;SDS011;6522;49.622;6.126;2023-05-07T09:38:15;17.87;;;16.97;;
12908;SDS011;6522;49.622;6.126;2023-05-07T09:41:04;17.40;;;16.50;;
12908;SDS011;6522;49.622;6.126;2023-05-07T09:43:48;16.57;;;15.67;;
12908;SDS011;6522;49.622;6.126;2023-05-07T09:46:35;17.30;;;16.40;;
12908;SDS011;6522;49.622;6.126;2023-05-07T09:49:22;17.00;;;16.20;;
12908;SDS011;6522;49.622;6.126;2023-05-07T09:52:08;15.50;;;14.60;;
12908;SDS011;6522;49.622;6.126;2023-05-07T09:54:55;17.27;;;16.47;;
12908;SDS011;6522;49.622;6.126;2023-05-07T09:57:42;17.30;;;16.47;;
12908;SDS011;6522;49.622;6.126;2023-05-07T10:00:28;17.60;;;16.70;;
12908;SDS011;6522;49.622;6.126;2023-05-07T10:03:15;15.25;;;14.45;;
12908;SDS011;6522;49.622;6.126;2023-05-07T10:06:02;17.00;;;16.20;;
12908;SDS011;6522;49.622;6.126;2023-05-07T10:08:48;17.37;;;16.47;;
12908;SDS011;6522;49.622;6.126;2023-05-07T10:11:37;17.00;;;16.20;;
12908;SDS011;6522;49.622;6.126;2023-05-07T10:14:22;16.63;;;15.83;;
12908;SDS011;6522;49.622;6.126;2023-05-07T10:17:09;16.13;;;15.13;;
12908;SDS011;6522;49.622;6.126;2023-05-07T10:19:56;17.13;;;16.20;;
12908;SDS011;6522;49.622;6.126;2023-05-07T10:22:44;16.30;;;15.50;;
12908;SDS011;6522;49.622;6.126;2023-05-07T10:25:30;16.97;;;16.07;;
12908;SDS011;6522;49.622;6.126;2023-05-07T10:28:16;17.57;;;16.67;;
12908;SDS011;6522;49.622;6.126;2023-05-07T10:31:18;16.90;;;16.10;;
12908;SDS011;6522;49.622;6.126;2023-05-07T10:34:01;17.37;;;16.57;;
12908;SDS011;6522;49.622;6.126;2023-05-07T10:36:48;16.53;;;15.67;;
12908;SDS011;6522;49.622;6.126;2023-05-07T10:39:34;17.93;;;16.83;;
12908;SDS011;6522;49.622;6.126;2023-05-07T10:42:21;18.07;;;17.17;;
12908;SDS011;6522;49.622;6.126;2023-05-07T10:45:14;14.80;;;14.00;;
12908;SDS011;6522;49.622;6.126;2023-05-07T10:50:51;17.47;;;16.57;;
12908;SDS011;6522;49.622;6.126;2023-05-07T10:53:37;19.00;;;18.00;;
12908;SDS011;6522;49.622;6.126;2023-05-07T10:56:24;18.77;;;17.87;;
12908;SDS011;6522;49.622;6.126;2023-05-07T11:02:06;18.80;;;17.70;;
12908;SDS011;6522;49.622;6.126;2023-05-07T11:08:02;17.53;;;16.73;;
12908;SDS011;6522;49.622;6.126;2023-05-07T11:10:49;17.93;;;17.03;;
12908;SDS011;6522;49.622;6.126;2023-05-07T11:13:42;18.00;;;17.10;;
12908;SDS011;6522;49.622;6.126;2023-05-07T11:16:28;18.60;;;17.50;;
12908;SDS011;6522;49.622;6.126;2023-05-07T11:19:14;18.70;;;17.50;;
12908;SDS011;6522;49.622;6.126;2023-05-07T11:22:01;16.23;;;15.32;;
12908;SDS011;6522;49.622;6.126;2023-05-07T11:24:48;15.60;;;14.60;;
12908;SDS011;6522;49.622;6.126;2023-05-07T11:27:35;18.57;;;17.57;;
12908;SDS011;6522;49.622;6.126;2023-05-07T11:30:21;17.70;;;16.60;;
12908;SDS011;6522;49.622;6.126;2023-05-07T11:33:08;18.40;;;17.50;;
12908;SDS011;6522;49.622;6.126;2023-05-07T11:35:55;18.90;;;17.90;;
12908;SDS011;6522;49.622;6.126;2023-05-07T11:38:42;18.43;;;17.43;;
12908;SDS011;6522;49.622;6.126;2023-05-07T11:41:36;17.83;;;16.93;;
12908;SDS011;6522;49.622;6.126;2023-05-07T11:44:22;18.47;;;17.57;;
12908;SDS011;6522;49.622;6.126;2023-05-07T11:47:09;19.23;;;18.03;;
12908;SDS011;6522;49.622;6.126;2023-05-07T11:49:55;18.80;;;17.70;;
12908;SDS011;6522;49.622;6.126;2023-05-07T11:52:49;18.23;;;17.03;;
12908;SDS011;6522;49.622;6.126;2023-05-07T11:55:29;17.87;;;16.83;;
12908;SDS011;6522;49.622;6.126;2023-05-07T11:58:20;19.10;;;18.00;;
12908;SDS011;6522;49.622;6.126;2023-05-07T12:01:02;18.00;;;17.03;;
12908;SDS011;6522;49.622;6.126;2023-05-07T12:03:49;18.80;;;17.73;;
12908;SDS011;6522;49.622;6.126;2023-05-07T12:06:36;18.17;;;17.20;;
12908;SDS011;6522;49.622;6.126;2023-05-07T12:09:22;18.00;;;17.00;;
12908;SDS011;6522;49.622;6.126;2023-05-07T12:12:10;19.00;;;18.00;;
12908;SDS011;6522;49.622;6.126;2023-05-07T12:14:56;18.90;;;17.37;;
12908;SDS011;6522;49.622;6.126;2023-05-07T12:17:43;18.60;;;17.50;;
12908;SDS011;6522;49.622;6.126;2023-05-07T12:20:30;19.97;;;18.90;;
12908;SDS011;6522;49.622;6.126;2023-05-07T12:23:17;18.80;;;17.70;;
12908;SDS011;6522;49.622;6.126;2023-05-07T12:26:04;18.63;;;17.67;;
12908;SDS011;6522;49.622;6.126;2023-05-07T12:28:51;18.30;;;17.37;;
12908;SDS011;6522;49.622;6.126;2023-05-07T12:31:40;19.47;;;18.47;;
12908;SDS011;6522;49.622;6.126;2023-05-07T12:34:25;18.70;;;17.60;;
12908;SDS011;6522;49.622;6.126;2023-05-07T12:37:12;19.87;;;18.60;;
12908;SDS011;6522;49.622;6.126;2023-05-07T12:40:08;19.73;;;18.53;;
12908;SDS011;6522;49.622;6.126;2023-05-07T12:42:54;19.57;;;18.50;;
12908;SDS011;6522;49.622;6.126;2023-05-07T12:45:41;19.83;;;18.67;;
12908;SDS011;6522;49.622;6.126;2023-05-07T12:48:27;18.60;;;17.50;;
12908;SDS011;6522;49.622;6.126;2023-05-07T12:51:14;18.23;;;17.23;;
12908;SDS011;6522;49.622;6.126;2023-05-07T12:54:01;17.47;;;16.33;;
12908;SDS011;6522;49.622;6.126;2023-05-07T12:56:48;18.07;;;17.10;;
12908;SDS011;6522;49.622;6.126;2023-05-07T12:59:39;15.60;;;14.57;;
12908;SDS011;6522;49.622;6.126;2023-05-07T13:02:32;19.70;;;18.40;;
12908;SDS011;6522;49.622;6.126;2023-05-07T13:05:12;15.60;;;14.70;;
12908;SDS011;6522;49.622;6.126;2023-05-07T13:07:59;17.93;;;17.03;;
12908;SDS011;6522;49.622;6.126;2023-05-07T13:10:45;15.60;;;14.70;;
12908;SDS011;6522;49.622;6.126;2023-05-07T13:13:33;18.07;;;16.97;;
12908;SDS011;6522;49.622;6.126;2023-05-07T13:16:19;15.40;;;14.40;;
12908;SDS011;6522;49.622;6.126;2023-05-07T13:19:06;18.50;;;17.40;;
12908;SDS011;6522;49.622;6.126;2023-05-07T13:21:52;15.80;;;14.80;;
12908;SDS011;6522;49.622;6.126;2023-05-07T13:24:39;18.03;;;17.03;;
12908;SDS011;6522;49.622;6.126;2023-05-07T13:27:26;15.90;;;14.70;;
12908;SDS011;6522;49.622;6.126;2023-05-07T13:30:12;17.33;;;16.43;;
12908;SDS011;6522;49.622;6.126;2023-05-07T13:32:59;17.57;;;16.40;;
12908;SDS011;6522;49.622;6.126;2023-05-07T13:35:46;15.07;;;14.27;;
12908;SDS011;6522;49.622;6.126;2023-05-07T13:38:33;17.97;;;16.67;;
12908;SDS011;6522;49.622;6.126;2023-05-07T13:41:20;15.48;;;14.38;;
12908;SDS011;6522;49.622;6.126;2023-05-07T13:44:07;17.17;;;16.17;;
12908;SDS011;6522;49.622;6.126;2023-05-07T13:46:54;14.55;;;13.55;;
12908;SDS011;6522;49.622;6.126;2023-05-07T13:49:40;18.00;;;16.80;;
12908;SDS011;6522;49.622;6.126;2023-05-07T13:52:27;14.50;;;13.60;;
12908;SDS011;6522;49.622;6.126;2023-05-07T13:55:14;15.18;;;13.98;;
12908;SDS011;6522;49.622;6.126;2023-05-07T13:58:01;17.90;;;16.70;;
12908;SDS011;6522;49.622;6.126;2023-05-07T14:00:47;15.17;;;14.17;;
12908;SDS011;6522;49.622;6.126;2023-05-07T14:03:34;17.63;;;16.43;;
12908;SDS011;6522;49.622;6.126;2023-05-07T14:06:21;14.90;;;13.90;;
12908;SDS011;6522;49.622;6.126;2023-05-07T14:09:08;17.30;;;16.40;;
12908;SDS011;6522;49.622;6.126;2023-05-07T14:11:55;15.00;;;14.10;;
12908;SDS011;6522;49.622;6.126;2023-05-07T14:14:42;17.30;;;16.33;;
12908;SDS011;6522;49.622;6.126;2023-05-07T14:17:28;15.40;;;14.30;;
12908;SDS011;6522;49.622;6.126;2023-05-07T14:20:15;14.82;;;13.93;;
12908;SDS011;6522;49.622;6.126;2023-05-07T14:23:02;16.93;;;16.03;;
12908;SDS011;6522;49.622;6.126;2023-05-07T14:25:49;15.40;;;14.40;;
12908;SDS011;6522;49.622;6.126;2023-05-07T14:28:35;17.37;;;16.40;;
12908;SDS011;6522;49.622;6.126;2023-05-07T14:31:22;14.03;;;13.13;;
12908;SDS011;6522;49.622;6.126;2023-05-07T14:34:09;17.77;;;16.47;;
12908;SDS011;6522;49.622;6.126;2023-05-07T14:36:56;14.45;;;13.50;;
12908;SDS011;6522;49.622;6.126;2023-05-07T14:39:42;14.63;;;13.62;;
12908;SDS011;6522;49.622;6.126;2023-05-07T14:42:29;16.90;;;15.90;;
12908;SDS011;6522;49.622;6.126;2023-05-07T14:45:16;14.90;;;13.80;;
12908;SDS011;6522;49.622;6.126;2023-05-07T14:48:02;16.80;;;15.90;;
12908;SDS011;6522;49.622;6.126;2023-05-07T14:50:49;15.13;;;13.62;;
12908;SDS011;6522;49.622;6.126;2023-05-07T14:53:36;16.63;;;15.73;;
12908;SDS011;6522;49.622;6.126;2023-05-07T14:56:23;15.00;;;14.10;;
12908;SDS011;6522;49.622;6.126;2023-05-07T14:59:10;18.00;;;16.80;;
12908;SDS011;6522;49.622;6.126;2023-05-07T15:01:57;16.30;;;15.40;;
12908;SDS011;6522;49.622;6.126;2023-05-07T15:04:44;16.20;;;15.40;;
12908;SDS011;6522;49.622;6.126;2023-05-07T15:07:33;16.93;;;15.93;;
12908;SDS011;6522;49.622;6.126;2023-05-07T15:10:20;16.63;;;15.80;;
12908;SDS011;6522;49.622;6.126;2023-05-07T15:13:07;17.33;;;16.07;;
12908;SDS011;6522;49.622;6.126;2023-05-07T15:15:54;16.53;;;15.53;;
12908;SDS011;6522;49.622;6.126;2023-05-07T15:18:40;16.40;;;15.60;;
12908;SDS011;6522;49.622;6.126;2023-05-07T15:21:27;15.70;;;14.90;;
12908;SDS011;6522;49.622;6.126;2023-05-07T15:24:14;16.20;;;15.20;;
12908;SDS011;6522;49.622;6.126;2023-05-07T15:27:01;17.80;;;16.90;;
12908;SDS011;6522;49.622;6.126;2023-05-07T15:29:48;16.60;;;15.70;;
12908;SDS011;6522;49.622;6.126;2023-05-07T15:32:35;16.13;;;15.33;;
12908;SDS011;6522;49.622;6.126;2023-05-07T15:35:22;13.30;;;12.50;;
12908;SDS011;6522;49.622;6.126;2023-05-07T15:38:08;15.07;;;14.37;;
12908;SDS011;6522;49.622;6.126;2023-05-07T15:40:55;13.20;;;12.50;;
12908;SDS011;6522;49.622;6.126;2023-05-07T15:43:46;14.87;;;14.17;;
12908;SDS011;6522;49.622;6.126;2023-05-07T15:46:32;15.10;;;14.40;;
12908;SDS011;6522;49.622;6.126;2023-05-07T15:49:18;15.70;;;14.90;;
12908;SDS011;6522;49.622;6.126;2023-05-07T15:52:05;15.30;;;14.50;;
12908;SDS011;6522;49.622;6.126;2023-05-07T15:54:52;15.90;;;15.10;;
12908;SDS011;6522;49.622;6.126;2023-05-07T15:57:38;16.20;;;15.40;;
12908;SDS011;6522;49.622;6.126;2023-05-07T16:00:26;15.23;;;14.50;;
12908;SDS011;6522;49.622;6.126;2023-05-07T16:03:12;16.73;;;15.87;;
12908;SDS011;6522;49.622;6.126;2023-05-07T16:05:59;15.87;;;15.07;;
12908;SDS011;6522;49.622;6.126;2023-05-07T16:08:46;16.20;;;15.40;;
12908;SDS011;6522;49.622;6.126;2023-05-07T16:11:33;16.00;;;15.10;;
12908;SDS011;6522;49.622;6.126;2023-05-07T16:14:19;13.40;;;12.60;;
12908;SDS011;6522;49.622;6.126;2023-05-07T16:17:06;15.33;;;14.53;;
12908;SDS011;6522;49.622;6.126;2023-05-07T16:19:53;13.15;;;12.40;;
12908;SDS011;6522;49.622;6.126;2023-05-07T16:22:39;13.40;;;12.63;;
12908;SDS011;6522;49.622;6.126;2023-05-07T16:25:26;14.57;;;13.87;;
12908;SDS011;6522;49.622;6.126;2023-05-07T16:28:13;12.60;;;11.80;;
12908;SDS011;6522;49.622;6.126;2023-05-07T16:31:00;15.70;;;14.63;;
12908;SDS011;6522;49.622;6.126;2023-05-07T16:33:46;18.77;;;17.70;;
12908;SDS011;6522;49.622;6.126;2023-05-07T16:36:33;20.33;;;18.63;;
12908;SDS011;6522;49.622;6.126;2023-05-07T16:39:20;21.43;;;20.17;;
12908;SDS011;6522;49.622;6.126;2023-05-07T16:42:07;4.50;;;4.30;;
12908;SDS011;6522;49.622;6.126;2023-05-07T16:44:54;1.50;;;1.27;;
12908;SDS011;6522;49.622;6.126;2023-05-07T16:47:40;2.80;;;2.60;;
12908;SDS011;6522;49.622;6.126;2023-05-07T16:50:27;1.50;;;0.90;;